Terminal Aerodrome Forecast
Issued by NWS

Home | Current Version | Previous Version | Text Only | Print | Product List | Glossary On
Versions: 1 2 3 4 5 6 7 8 9 10 11 12 13 14 15 16 17 18 19 20 21 22 23
000
FTUS44 KMAF 041130
TAFINK
TAF
KINK 041130Z 0412/0512 36010KT 6SM BR SCT010 OVC020
      TEMPO 0412/0416 3SM BR OVC008
     FM041800 03011KT P6SM BKN030 OVC050
     FM042100 05009KT P6SM BKN050 OVC100
     FM050600 30005KT P6SM SCT100 BKN150=

USA.gov is the U.S. government's official web portal to all federal, state and local government web resources and services.